sensor_id;sensor_type;location;lat;lon;timestamp;pressure;altitude;pressure_sealevel;temperature;humidity
53715;BME280;39608;55.630;37.864;2023-03-23T00:00:03;99280.72;;;6.16;54.38
53715;BME280;39608;55.630;37.864;2023-03-23T00:05:08;99294.16;;;6.21;54.44
53715;BME280;39608;55.630;37.864;2023-03-23T00:10:10;99288.75;;;6.26;54.20
53715;BME280;39608;55.630;37.864;2023-03-23T00:15:15;99279.63;;;6.17;54.73
53715;BME280;39608;55.630;37.864;2023-03-23T00:20:18;99279.88;;;6.21;54.94
53715;BME280;39608;55.630;37.864;2023-03-23T00:25:20;99283.13;;;6.23;54.67
53715;BME280;39608;55.630;37.864;2023-03-23T00:30:24;99278.53;;;6.23;55.01
53715;BME280;39608;55.630;37.864;2023-03-23T00:35:27;99272.09;;;6.19;54.89
53715;BME280;39608;55.630;37.864;2023-03-23T00:40:31;99268.88;;;6.17;55.06
53715;BME280;39608;55.630;37.864;2023-03-23T00:45:37;99267.75;;;6.18;55.33
53715;BME280;39608;55.630;37.864;2023-03-23T00:50:39;99262.38;;;6.28;55.00
53715;BME280;39608;55.630;37.864;2023-03-23T00:55:41;99252.13;;;6.30;54.88
53715;BME280;39608;55.630;37.864;2023-03-23T01:00:45;99237.34;;;6.18;55.09
53715;BME280;39608;55.630;37.864;2023-03-23T01:05:47;99240.88;;;6.13;55.31
53715;BME280;39608;55.630;37.864;2023-03-23T01:11:02;99249.44;;;6.25;55.45
53715;BME280;39608;55.630;37.864;2023-03-23T01:16:06;99240.03;;;6.12;55.73
53715;BME280;39608;55.630;37.864;2023-03-23T01:21:10;99251.13;;;6.01;55.74
53715;BME280;39608;55.630;37.864;2023-03-23T01:26:13;99241.97;;;6.02;55.80
53715;BME280;39608;55.630;37.864;2023-03-23T01:31:18;99246.81;;;6.05;55.84
53715;BME280;39608;55.630;37.864;2023-03-23T01:36:22;99229.56;;;6.06;55.41
53715;BME280;39608;55.630;37.864;2023-03-23T01:41:24;99224.72;;;6.03;55.71
53715;BME280;39608;55.630;37.864;2023-03-23T01:46:28;99233.88;;;6.12;55.74
53715;BME280;39608;55.630;37.864;2023-03-23T01:51:31;99219.59;;;6.06;55.70
53715;BME280;39608;55.630;37.864;2023-03-23T01:56:38;99219.84;;;6.10;55.83
53715;BME280;39608;55.630;37.864;2023-03-23T02:01:43;99205.31;;;6.06;56.03
53715;BME280;39608;55.630;37.864;2023-03-23T02:06:46;99202.13;;;6.04;56.10
53715;BME280;39608;55.630;37.864;2023-03-23T02:11:49;99202.66;;;6.01;55.78
53715;BME280;39608;55.630;37.864;2023-03-23T02:16:55;99188.66;;;6.04;56.27
53715;BME280;39608;55.630;37.864;2023-03-23T02:22:35;99205.03;;;6.12;55.80
53715;BME280;39608;55.630;37.864;2023-03-23T02:28:01;99208.28;;;6.09;56.13
53715;BME280;39608;55.630;37.864;2023-03-23T02:33:31;99200.22;;;6.04;56.01
53715;BME280;39608;55.630;37.864;2023-03-23T02:38:38;99204.28;;;6.02;56.45
53715;BME280;39608;55.630;37.864;2023-03-23T02:43:45;99208.59;;;5.97;56.67
53715;BME280;39608;55.630;37.864;2023-03-23T02:48:50;99202.09;;;5.93;56.27
53715;BME280;39608;55.630;37.864;2023-03-23T02:53:56;99205.88;;;5.92;56.52
53715;BME280;39608;55.630;37.864;2023-03-23T02:58:58;99201.03;;;5.84;56.84
53715;BME280;39608;55.630;37.864;2023-03-23T03:04:06;99203.44;;;5.86;56.76
53715;BME280;39608;55.630;37.864;2023-03-23T03:09:14;99203.44;;;5.86;56.69
53715;BME280;39608;55.630;37.864;2023-03-23T03:14:22;99213.69;;;5.78;57.33
53715;BME280;39608;55.630;37.864;2023-03-23T03:19:30;99184.34;;;5.66;57.10
53715;BME280;39608;55.630;37.864;2023-03-23T03:24:33;99194.03;;;5.88;55.37
53715;BME280;39608;55.630;37.864;2023-03-23T03:29:39;99199.44;;;5.62;56.96
53715;BME280;39608;55.630;37.864;2023-03-23T03:34:43;99190.28;;;5.48;57.83
53715;BME280;39608;55.630;37.864;2023-03-23T03:39:45;99196.22;;;5.45;58.21
53715;BME280;39608;55.630;37.864;2023-03-23T03:44:47;99203.19;;;5.30;58.19
53715;BME280;39608;55.630;37.864;2023-03-23T03:49:51;99193.22;;;5.26;58.88
53715;BME280;39608;55.630;37.864;2023-03-23T03:54:53;99198.34;;;5.22;58.92
53715;BME280;39608;55.630;37.864;2023-03-23T03:59:56;99192.41;;;5.20;58.62
53715;BME280;39608;55.630;37.864;2023-03-23T04:04:59;99191.63;;;5.20;58.88
53715;BME280;39608;55.630;37.864;2023-03-23T04:10:05;99188.66;;;5.16;58.86
53715;BME280;39608;55.630;37.864;2023-03-23T04:15:08;99173.88;;;5.08;59.72
53715;BME280;39608;55.630;37.864;2023-03-23T04:20:12;99183.25;;;5.06;60.00
53715;BME280;39608;55.630;37.864;2023-03-23T04:25:17;99182.72;;;5.09;59.41
53715;BME280;39608;55.630;37.864;2023-03-23T04:30:22;99180.31;;;5.07;59.67
53715;BME280;39608;55.630;37.864;2023-03-23T04:35:27;99178.19;;;5.09;59.39
53715;BME280;39608;55.630;37.864;2023-03-23T04:40:29;99166.84;;;5.02;60.24
53715;BME280;39608;55.630;37.864;2023-03-23T04:45:32;99173.88;;;5.08;60.54
53715;BME280;39608;55.630;37.864;2023-03-23T04:50:36;99179.00;;;5.15;60.43
53715;BME280;39608;55.630;37.864;2023-03-23T04:55:38;99166.88;;;5.23;60.51
53715;BME280;39608;55.630;37.864;2023-03-23T05:00:41;99160.44;;;5.29;60.02
53715;BME280;39608;55.630;37.864;2023-03-23T05:05:46;99154.00;;;5.35;60.56
53715;BME280;39608;55.630;37.864;2023-03-23T05:10:55;99165.00;;;5.49;60.62
53715;BME280;39608;55.630;37.864;2023-03-23T05:15:57;99148.09;;;5.48;60.29
53715;BME280;39608;55.630;37.864;2023-03-23T05:21:02;99146.44;;;5.68;60.60
53715;BME280;39608;55.630;37.864;2023-03-23T05:26:04;99173.06;;;5.80;60.21
53715;BME280;39608;55.630;37.864;2023-03-23T05:31:07;99173.03;;;5.95;60.26
53715;BME280;39608;55.630;37.864;2023-03-23T05:36:11;99181.59;;;6.28;60.51
53715;BME280;39608;55.630;37.864;2023-03-23T05:41:14;99181.97;;;7.16;59.26
53715;BME280;39608;55.630;37.864;2023-03-23T05:46:16;99193.19;;;8.46;56.75
53715;BME280;39608;55.630;37.864;2023-03-23T05:51:19;99180.41;;;9.14;55.25
53715;BME280;39608;55.630;37.864;2023-03-23T05:56:21;99184.63;;;9.72;53.81
53715;BME280;39608;55.630;37.864;2023-03-23T06:01:25;99182.13;;;10.37;52.89
53715;BME280;39608;55.630;37.864;2023-03-23T06:06:30;99186.13;;;10.12;52.50
53715;BME280;39608;55.630;37.864;2023-03-23T06:11:32;99180.56;;;9.04;54.29
53715;BME280;39608;55.630;37.864;2023-03-23T06:16:35;99183.50;;;8.45;55.59
53715;BME280;39608;55.630;37.864;2023-03-23T06:21:39;99172.47;;;8.12;56.56
53715;BME280;39608;55.630;37.864;2023-03-23T06:26:43;99179.06;;;8.01;56.83
53715;BME280;39608;55.630;37.864;2023-03-23T06:31:48;99169.75;;;7.88;56.83
53715;BME280;39608;55.630;37.864;2023-03-23T06:36:52;99171.19;;;7.80;56.96
53715;BME280;39608;55.630;37.864;2023-03-23T06:41:56;99170.38;;;7.80;57.09
53715;BME280;39608;55.630;37.864;2023-03-23T06:46:59;99171.09;;;7.91;56.85
53715;BME280;39608;55.630;37.864;2023-03-23T06:52:04;99172.34;;;7.98;56.77
53715;BME280;39608;55.630;37.864;2023-03-23T06:57:07;99166.00;;;8.13;56.49
53715;BME280;39608;55.630;37.864;2023-03-23T07:02:10;99165.06;;;8.23;55.98
53715;BME280;39608;55.630;37.864;2023-03-23T07:07:14;99167.13;;;8.31;56.17
53715;BME280;39608;55.630;37.864;2023-03-23T07:12:18;99148.72;;;8.33;55.98
53715;BME280;39608;55.630;37.864;2023-03-23T07:17:21;99158.34;;;8.45;55.77
53715;BME280;39608;55.630;37.864;2023-03-23T07:22:24;99151.66;;;8.61;55.67
53715;BME280;39608;55.630;37.864;2023-03-23T07:27:26;99148.91;;;8.66;55.54
53715;BME280;39608;55.630;37.864;2023-03-23T07:32:28;99137.44;;;8.75;55.25
53715;BME280;39608;55.630;37.864;2023-03-23T07:37:31;99134.50;;;8.90;55.04
53715;BME280;39608;55.630;37.864;2023-03-23T07:42:33;99125.75;;;8.98;54.95
53715;BME280;39608;55.630;37.864;2023-03-23T07:47:35;99127.50;;;9.08;54.48
53715;BME280;39608;55.630;37.864;2023-03-23T07:52:39;99117.63;;;9.31;53.87
53715;BME280;39608;55.630;37.864;2023-03-23T07:57:43;99111.47;;;9.45;53.46
53715;BME280;39608;55.630;37.864;2023-03-23T08:02:45;99117.03;;;9.67;52.20
53715;BME280;39608;55.630;37.864;2023-03-23T08:07:49;99116.53;;;9.93;51.62
53715;BME280;39608;55.630;37.864;2023-03-23T08:12:54;99109.00;;;10.59;49.87
53715;BME280;39608;55.630;37.864;2023-03-23T08:17:58;99097.72;;;11.25;48.08
53715;BME280;39608;55.630;37.864;2023-03-23T08:23:03;99099.16;;;11.86;47.07
53715;BME280;39608;55.630;37.864;2023-03-23T08:28:05;99087.25;;;12.04;45.58
53715;BME280;39608;55.630;37.864;2023-03-23T08:33:08;99102.53;;;12.31;44.93
53715;BME280;39608;55.630;37.864;2023-03-23T08:38:12;99104.19;;;12.76;44.50
53715;BME280;39608;55.630;37.864;2023-03-23T08:43:14;99089.94;;;12.88;43.27
53715;BME280;39608;55.630;37.864;2023-03-23T08:48:17;99075.34;;;13.19;42.50
53715;BME280;39608;55.630;37.864;2023-03-23T08:53:20;99074.19;;;13.46;42.08
53715;BME280;39608;55.630;37.864;2023-03-23T08:58:22;99076.88;;;13.55;41.32
53715;BME280;39608;55.630;37.864;2023-03-23T09:03:24;99073.03;;;13.95;41.07
53715;BME280;39608;55.630;37.864;2023-03-23T09:08:28;99054.00;;;14.67;40.04
53715;BME280;39608;55.630;37.864;2023-03-23T09:13:30;99038.88;;;14.91;39.32
53715;BME280;39608;55.630;37.864;2023-03-23T09:18:33;99044.00;;;14.92;38.69
53715;BME280;39608;55.630;37.864;2023-03-23T09:23:37;99035.97;;;14.75;39.09
53715;BME280;39608;55.630;37.864;2023-03-23T09:28:40;99016.78;;;14.83;38.88
53715;BME280;39608;55.630;37.864;2023-03-23T09:33:42;99011.94;;;15.35;38.62
53715;BME280;39608;55.630;37.864;2023-03-23T09:38:47;99006.38;;;15.56;38.54
53715;BME280;39608;55.630;37.864;2023-03-23T09:43:58;99009.00;;;16.02;38.48
53715;BME280;39608;55.630;37.864;2023-03-23T09:49:09;99016.41;;;16.54;37.78
53715;BME280;39608;55.630;37.864;2023-03-23T09:54:18;99006.56;;;16.66;37.35
53715;BME280;39608;55.630;37.864;2023-03-23T09:59:27;99001.06;;;16.37;37.15
53715;BME280;39608;55.630;37.864;2023-03-23T10:04:35;98970.81;;;16.46;36.76
53715;BME280;39608;55.630;37.864;2023-03-23T10:09:42;98982.28;;;16.64;36.40
53715;BME280;39608;55.630;37.864;2023-03-23T10:20:25;98947.31;;;17.18;35.93
53715;BME280;39608;55.630;37.864;2023-03-23T10:25:34;98946.91;;;17.83;35.24
53715;BME280;39608;55.630;37.864;2023-03-23T10:30:39;98945.75;;;18.00;34.38
53715;BME280;39608;55.630;37.864;2023-03-23T10:35:46;98926.84;;;17.79;34.23
53715;BME280;39608;55.630;37.864;2023-03-23T10:40:54;98941.41;;;17.99;34.15
53715;BME280;39608;55.630;37.864;2023-03-23T10:46:02;98936.03;;;17.71;34.70
53715;BME280;39608;55.630;37.864;2023-03-23T10:51:12;98938.28;;;17.65;33.96
53715;BME280;39608;55.630;37.864;2023-03-23T10:56:24;98934.72;;;17.97;33.92
53715;BME280;39608;55.630;37.864;2023-03-23T11:01:32;98934.56;;;18.09;33.37
53715;BME280;39608;55.630;37.864;2023-03-23T11:06:35;98937.16;;;18.21;32.69
53715;BME280;39608;55.630;37.864;2023-03-23T11:11:43;98931.69;;;17.86;32.58
53715;BME280;39608;55.630;37.864;2023-03-23T11:16:51;98932.44;;;17.67;33.49
53715;BME280;39608;55.630;37.864;2023-03-23T11:21:57;98924.34;;;17.74;32.98
53715;BME280;39608;55.630;37.864;2023-03-23T11:27:02;98909.44;;;18.07;33.12
53715;BME280;39608;55.630;37.864;2023-03-23T11:32:11;98909.84;;;17.89;32.40
53715;BME280;39608;55.630;37.864;2023-03-23T11:37:17;98901.94;;;17.52;32.57
53715;BME280;39608;55.630;37.864;2023-03-23T11:42:24;98923.78;;;17.49;32.81
53715;BME280;39608;55.630;37.864;2023-03-23T11:47:32;98919.03;;;17.30;32.95
53715;BME280;39608;55.630;37.864;2023-03-23T11:52:42;98921.50;;;17.35;32.87
53715;BME280;39608;55.630;37.864;2023-03-23T11:57:48;98926.16;;;16.86;32.76
53715;BME280;39608;55.630;37.864;2023-03-23T12:02:54;98927.53;;;16.80;32.94
53715;BME280;39608;55.630;37.864;2023-03-23T12:08:07;98917.56;;;16.15;33.56
53715;BME280;39608;55.630;37.864;2023-03-23T12:13:31;98905.34;;;15.60;34.70
53715;BME280;39608;55.630;37.864;2023-03-23T12:18:44;98898.19;;;15.05;35.03
53715;BME280;39608;55.630;37.864;2023-03-23T12:23:55;98899.09;;;14.97;35.09
53715;BME280;39608;55.630;37.864;2023-03-23T12:34:35;98891.00;;;15.01;35.52
53715;BME280;39608;55.630;37.864;2023-03-23T12:39:58;98898.31;;;15.46;34.70
53715;BME280;39608;55.630;37.864;2023-03-23T12:45:19;98884.59;;;15.71;34.64
53715;BME280;39608;55.630;37.864;2023-03-23T12:50:28;98883.25;;;16.18;34.11
53715;BME280;39608;55.630;37.864;2023-03-23T12:55:37;98892.34;;;16.22;34.00
53715;BME280;39608;55.630;37.864;2023-03-23T13:00:57;98894.53;;;15.88;34.41
53715;BME280;39608;55.630;37.864;2023-03-23T13:06:04;98881.22;;;15.25;35.12
53715;BME280;39608;55.630;37.864;2023-03-23T13:11:11;98881.97;;;14.76;35.88
53715;BME280;39608;55.630;37.864;2023-03-23T13:16:26;98865.53;;;14.51;36.28
53715;BME280;39608;55.630;37.864;2023-03-23T13:21:31;98865.97;;;14.19;36.73
53715;BME280;39608;55.630;37.864;2023-03-23T13:26:37;98859.59;;;14.15;37.11
53715;BME280;39608;55.630;37.864;2023-03-23T13:31:42;98858.34;;;13.92;37.34
53715;BME280;39608;55.630;37.864;2023-03-23T13:36:54;98856.16;;;13.85;37.76
53715;BME280;39608;55.630;37.864;2023-03-23T13:42:04;98850.69;;;13.85;37.75
53715;BME280;39608;55.630;37.864;2023-03-23T13:47:16;98856.88;;;13.94;37.93
53715;BME280;39608;55.630;37.864;2023-03-23T13:52:24;98848.03;;;13.55;38.51
53715;BME280;39608;55.630;37.864;2023-03-23T13:57:37;98857.41;;;13.45;38.88
53715;BME280;39608;55.630;37.864;2023-03-23T14:02:42;98854.78;;;13.19;39.51
53715;BME280;39608;55.630;37.864;2023-03-23T14:07:53;98860.09;;;13.15;39.49
53715;BME280;39608;55.630;37.864;2023-03-23T14:12:55;98844.88;;;12.84;40.32
53715;BME280;39608;55.630;37.864;2023-03-23T14:18:03;98834.31;;;12.83;40.60
53715;BME280;39608;55.630;37.864;2023-03-23T14:23:15;98838.16;;;12.82;40.63
53715;BME280;39608;55.630;37.864;2023-03-23T14:28:18;98817.44;;;12.60;41.41
53715;BME280;39608;55.630;37.864;2023-03-23T14:33:25;98816.16;;;12.57;41.73
53715;BME280;39608;55.630;37.864;2023-03-23T14:38:28;98822.56;;;12.53;42.06
53715;BME280;39608;55.630;37.864;2023-03-23T14:43:33;98819.72;;;12.40;42.53
53715;BME280;39608;55.630;37.864;2023-03-23T14:48:38;98817.38;;;12.30;42.82
53715;BME280;39608;55.630;37.864;2023-03-23T14:53:41;98822.16;;;12.15;43.31
53715;BME280;39608;55.630;37.864;2023-03-23T14:58:47;98826.03;;;12.14;43.54
53715;BME280;39608;55.630;37.864;2023-03-23T15:03:55;98811.19;;;12.03;43.30
53715;BME280;39608;55.630;37.864;2023-03-23T15:09:01;98807.66;;;11.94;43.99
53715;BME280;39608;55.630;37.864;2023-03-23T15:14:09;98799.50;;;11.94;44.17
53715;BME280;39608;55.630;37.864;2023-03-23T15:19:16;98808.44;;;11.86;44.55
53715;BME280;39608;55.630;37.864;2023-03-23T15:24:25;98812.44;;;11.79;44.38
53715;BME280;39608;55.630;37.864;2023-03-23T15:29:27;98805.06;;;11.62;44.96
53715;BME280;39608;55.630;37.864;2023-03-23T15:34:33;98805.56;;;11.64;45.06
53715;BME280;39608;55.630;37.864;2023-03-23T15:39:40;98793.56;;;11.48;45.43
53715;BME280;39608;55.630;37.864;2023-03-23T15:44:42;98782.38;;;11.41;45.54
53715;BME280;39608;55.630;37.864;2023-03-23T15:49:47;98792.78;;;11.39;45.63
53715;BME280;39608;55.630;37.864;2023-03-23T15:54:59;98785.75;;;11.29;45.53
53715;BME280;39608;55.630;37.864;2023-03-23T16:00:01;98788.09;;;11.22;45.92
53715;BME280;39608;55.630;37.864;2023-03-23T16:05:08;98788.09;;;11.22;45.79
53715;BME280;39608;55.630;37.864;2023-03-23T16:10:15;98788.91;;;11.22;46.07
53715;BME280;39608;55.630;37.864;2023-03-23T16:15:18;98779.97;;;11.22;45.59
53715;BME280;39608;55.630;37.864;2023-03-23T16:20:22;98775.16;;;11.10;46.23
53715;BME280;39608;55.630;37.864;2023-03-23T16:25:24;98771.94;;;11.08;46.17
53715;BME280;39608;55.630;37.864;2023-03-23T16:30:28;98763.34;;;11.06;46.27
53715;BME280;39608;55.630;37.864;2023-03-23T16:35:31;98784.72;;;10.99;46.23
53715;BME280;39608;55.630;37.864;2023-03-23T16:40:34;98778.13;;;10.91;46.51
53715;BME280;39608;55.630;37.864;2023-03-23T16:45:37;98773.34;;;10.79;46.85
53715;BME280;39608;55.630;37.864;2023-03-23T16:50:41;98776.06;;;10.88;46.36
53715;BME280;39608;55.630;37.864;2023-03-23T16:55:43;98775.06;;;10.75;46.70
53715;BME280;39608;55.630;37.864;2023-03-23T17:00:50;98780.31;;;10.71;46.72
53715;BME280;39608;55.630;37.864;2023-03-23T17:05:54;98761.94;;;10.59;46.78
53715;BME280;39608;55.630;37.864;2023-03-23T17:10:56;98762.88;;;10.55;46.97
53715;BME280;39608;55.630;37.864;2023-03-23T17:15:58;98752.31;;;10.44;46.94
53715;BME280;39608;55.630;37.864;2023-03-23T17:21:02;98757.09;;;10.48;47.08
53715;BME280;39608;55.630;37.864;2023-03-23T17:26:07;98744.28;;;10.39;46.80
53715;BME280;39608;55.630;37.864;2023-03-23T17:31:09;98740.41;;;10.32;47.40
53715;BME280;39608;55.630;37.864;2023-03-23T17:36:12;98720.47;;;10.27;47.13
53715;BME280;39608;55.630;37.864;2023-03-23T17:41:14;98722.22;;;10.23;47.49
53715;BME280;39608;55.630;37.864;2023-03-23T17:46:16;98713.59;;;10.21;47.35
53715;BME280;39608;55.630;37.864;2023-03-23T17:51:20;98706.59;;;10.20;47.86
53715;BME280;39608;55.630;37.864;2023-03-23T17:56:22;98690.97;;;10.17;47.47
53715;BME280;39608;55.630;37.864;2023-03-23T18:01:24;98694.75;;;10.07;47.75
53715;BME280;39608;55.630;37.864;2023-03-23T18:06:28;98689.44;;;10.02;47.73
53715;BME280;39608;55.630;37.864;2023-03-23T18:11:32;98684.13;;;9.88;48.05
53715;BME280;39608;55.630;37.864;2023-03-23T18:16:34;98681.72;;;9.87;48.03
53715;BME280;39608;55.630;37.864;2023-03-23T18:21:37;98668.44;;;9.76;48.04
53715;BME280;39608;55.630;37.864;2023-03-23T18:26:40;98657.06;;;9.66;48.39
53715;BME280;39608;55.630;37.864;2023-03-23T18:31:42;98654.81;;;9.59;48.53
53715;BME280;39608;55.630;37.864;2023-03-23T18:36:45;98647.00;;;9.57;48.25
53715;BME280;39608;55.630;37.864;2023-03-23T18:41:47;98654.44;;;9.52;48.44
53715;BME280;39608;55.630;37.864;2023-03-23T18:46:49;98654.44;;;9.52;48.76
53715;BME280;39608;55.630;37.864;2023-03-23T18:51:52;98646.94;;;9.49;48.97
53715;BME280;39608;55.630;37.864;2023-03-23T18:56:55;98633.19;;;9.36;48.96
53715;BME280;39608;55.630;37.864;2023-03-23T19:01:56;98641.59;;;9.35;49.51
53715;BME280;39608;55.630;37.864;2023-03-23T19:07:01;98633.59;;;9.30;49.59
53715;BME280;39608;55.630;37.864;2023-03-23T19:12:03;98634.53;;;9.25;49.62
53715;BME280;39608;55.630;37.864;2023-03-23T19:17:06;98627.16;;;9.17;49.95
53715;BME280;39608;55.630;37.864;2023-03-23T19:22:10;98633.03;;;9.19;50.01
53715;BME280;39608;55.630;37.864;2023-03-23T19:27:12;98625.53;;;9.16;50.28
53715;BME280;39608;55.630;37.864;2023-03-23T19:32:14;98607.22;;;9.13;50.50
53715;BME280;39608;55.630;37.864;2023-03-23T19:37:18;98595.16;;;9.19;50.69
53715;BME280;39608;55.630;37.864;2023-03-23T19:42:20;98595.47;;;9.17;50.74
53715;BME280;39608;55.630;37.864;2023-03-23T19:47:22;98580.22;;;9.21;51.06
53715;BME280;39608;55.630;37.864;2023-03-23T19:52:26;98586.50;;;9.31;51.09
53715;BME280;39608;55.630;37.864;2023-03-23T19:57:28;98577.94;;;9.37;51.12
53715;BME280;39608;55.630;37.864;2023-03-23T20:02:30;98569.06;;;9.46;51.22
53715;BME280;39608;55.630;37.864;2023-03-23T20:07:33;98563.41;;;9.56;51.35
53715;BME280;39608;55.630;37.864;2023-03-23T20:12:35;98557.34;;;9.59;51.38
53715;BME280;39608;55.630;37.864;2023-03-23T20:17:37;98558.31;;;9.63;51.44
53715;BME280;39608;55.630;37.864;2023-03-23T20:22:40;98562.31;;;9.66;51.67
53715;BME280;39608;55.630;37.864;2023-03-23T20:27:43;98545.91;;;9.62;51.76
53715;BME280;39608;55.630;37.864;2023-03-23T20:32:50;98538.75;;;9.66;51.62
53715;BME280;39608;55.630;37.864;2023-03-23T20:38:00;98521.09;;;9.69;51.69
53715;BME280;39608;55.630;37.864;2023-03-23T20:43:02;98511.81;;;9.61;51.73
53715;BME280;39608;55.630;37.864;2023-03-23T20:48:03;98519.47;;;9.59;51.87
53715;BME280;39608;55.630;37.864;2023-03-23T20:53:07;98509.41;;;9.59;51.93
53715;BME280;39608;55.630;37.864;2023-03-23T20:58:09;98513.69;;;9.52;52.50
53715;BME280;39608;55.630;37.864;2023-03-23T21:03:11;98522.91;;;9.51;52.67
53715;BME280;39608;55.630;37.864;2023-03-23T21:08:14;98535.03;;;9.53;52.78
53715;BME280;39608;55.630;37.864;2023-03-23T21:13:17;98530.56;;;9.49;52.87
53715;BME280;39608;55.630;37.864;2023-03-23T21:18:20;98529.28;;;9.46;52.76
53715;BME280;39608;55.630;37.864;2023-03-23T21:23:24;98516.69;;;9.41;52.97
53715;BME280;39608;55.630;37.864;2023-03-23T21:28:26;98507.41;;;9.34;53.43
53715;BME280;39608;55.630;37.864;2023-03-23T21:33:29;98490.50;;;9.28;53.37
53715;BME280;39608;55.630;37.864;2023-03-23T21:38:33;98489.22;;;9.25;53.42
53715;BME280;39608;55.630;37.864;2023-03-23T21:43:35;98485.22;;;9.23;53.78
53715;BME280;39608;55.630;37.864;2023-03-23T21:48:37;98486.06;;;9.23;54.02
53715;BME280;39608;55.630;37.864;2023-03-23T21:53:42;98476.50;;;9.26;54.20
53715;BME280;39608;55.630;37.864;2023-03-23T21:58:46;98468.03;;;9.19;54.50
53715;BME280;39608;55.630;37.864;2023-03-23T22:03:49;98466.59;;;9.21;54.50
53715;BME280;39608;55.630;37.864;2023-03-23T22:08:53;98459.31;;;9.22;54.48
53715;BME280;39608;55.630;37.864;2023-03-23T22:13:56;98434.59;;;9.15;54.84
53715;BME280;39608;55.630;37.864;2023-03-23T22:18:59;98454.34;;;9.15;54.84
53715;BME280;39608;55.630;37.864;2023-03-23T22:24:03;98446.38;;;9.19;54.96
53715;BME280;39608;55.630;37.864;2023-03-23T22:29:05;98440.50;;;9.17;54.93
53715;BME280;39608;55.630;37.864;2023-03-23T22:34:11;98436.50;;;9.14;55.09
53715;BME280;39608;55.630;37.864;2023-03-23T22:39:17;98416.78;;;9.14;55.32
53715;BME280;39608;55.630;37.864;2023-03-23T22:44:19;98417.53;;;9.05;55.28
53715;BME280;39608;55.630;37.864;2023-03-23T22:49:21;98418.66;;;9.04;55.75
53715;BME280;39608;55.630;37.864;2023-03-23T22:54:24;98410.22;;;9.06;55.40
53715;BME280;39608;55.630;37.864;2023-03-23T22:59:28;98399.84;;;8.99;55.76
53715;BME280;39608;55.630;37.864;2023-03-23T23:04:31;98382.53;;;9.00;56.17
53715;BME280;39608;55.630;37.864;2023-03-23T23:09:35;98377.44;;;8.99;55.94
53715;BME280;39608;55.630;37.864;2023-03-23T23:14:37;98367.25;;;8.96;56.10
53715;BME280;39608;55.630;37.864;2023-03-23T23:19:42;98363.25;;;8.93;56.38
53715;BME280;39608;55.630;37.864;2023-03-23T23:24:46;98358.31;;;8.95;56.32
53715;BME280;39608;55.630;37.864;2023-03-23T23:29:48;98345.75;;;8.90;56.52
53715;BME280;39608;55.630;37.864;2023-03-23T23:34:50;98332.22;;;8.90;56.76
53715;BME280;39608;55.630;37.864;2023-03-23T23:39:54;98312.19;;;8.92;56.73
53715;BME280;39608;55.630;37.864;2023-03-23T23:44:56;98309.00;;;8.89;56.64
53715;BME280;39608;55.630;37.864;2023-03-23T23:49:58;98303.44;;;8.86;56.82
53715;BME280;39608;55.630;37.864;2023-03-23T23:55:03;98291.66;;;8.90;57.02
